Time;durP1;ratioP1;P1;durP2;ratioP2;P2;SDS_P1;SDS_P2;PMS_P1;PMS_P2;Temp;Humidity;BMP_temperature;BMP_pressure;BME280_temperature;BME280_humidity;BME280_pressure;Samples;Min_cycle;Max_cycle;Signal;HPM_P1;HPM_P2
2021/04/02 00:01:38;;;;;;;37.90;22.27;;;;;;;12.88;72.46;98348.75;5093323;28;20214;-75
2021/04/02 00:04:04;;;;;;;38.77;21.60;;;;;;;12.81;72.61;98349.31;5093219;28;20218;-78
2021/04/02 00:06:30;;;;;;;39.83;23.77;;;;;;;12.68;73.57;98356.50;5093105;28;20206;-76
2021/04/02 00:08:56;;;;;;;40.30;22.70;;;;;;;12.73;73.72;98357.00;5093210;28;20699;-72
2021/04/02 00:11:22;;;;;;;37.47;22.70;;;;;;;12.83;72.93;98352.72;5092439;28;20253;-72
2021/04/02 00:13:49;;;;;;;39.97;23.07;;;;;;;12.80;72.96;98355.59;5092175;28;20241;-78
2021/04/02 00:16:18;;;;;;;36.97;22.40;;;;;;;12.64;74.13;98349.72;5093041;28;20221;-75
2021/04/02 00:18:46;;;;;;;39.73;23.83;;;;;;;12.60;74.03;98348.28;5092829;28;20714;-74
2021/04/02 00:21:14;;;;;;;38.30;23.17;;;;;;;12.55;74.01;98347.75;5092866;28;20210;-71
2021/04/02 00:23:41;;;;;;;38.37;23.40;;;;;;;12.47;74.93;98350.97;5095414;28;20676;-73
2021/04/02 00:26:08;;;;;;;38.67;22.93;;;;;;;12.37;75.30;98357.06;5095759;28;20217;-74
2021/04/02 00:28:34;;;;;;;37.93;22.57;;;;;;;12.36;75.36;98350.91;5095222;28;20213;-75
2021/04/02 00:31:00;;;;;;;38.80;23.70;;;;;;;12.35;75.56;98348.38;5095147;28;20675;-76
2021/04/02 00:33:28;;;;;;;36.90;23.13;;;;;;;12.28;75.76;98357.75;5092951;28;20211;-72
2021/04/02 00:35:56;;;;;;;38.37;24.37;;;;;;;12.25;76.12;98342.03;5093107;28;20569;-73
2021/04/02 00:38:22;;;;;;;36.13;22.87;;;;;;;12.36;75.47;98350.06;5091267;28;20643;-73
2021/04/02 00:40:52;;;;;;;39.30;24.73;;;;;;;12.38;75.28;98342.84;5092643;28;20215;-76
2021/04/02 00:43:21;;;;;;;34.83;22.80;;;;;;;12.27;75.62;98346.28;5092840;28;20289;-75
2021/04/02 00:45:47;;;;;;;35.20;22.20;;;;;;;12.25;75.95;98347.34;5092695;28;20688;-74
2021/04/02 00:48:13;;;;;;;34.23;22.30;;;;;;;12.22;75.73;98344.94;5092730;28;20216;-74
2021/04/02 00:50:43;;;;;;;32.57;22.40;;;;;;;12.22;75.83;98348.41;5092737;28;20237;-74
2021/04/02 00:53:10;;;;;;;39.80;22.67;;;;;;;12.11;76.34;98350.97;5092567;28;20218;-73
2021/04/02 00:55:37;;;;;;;33.90;20.10;;;;;;;12.26;75.29;98346.38;5092767;28;20256;-75
2021/04/02 00:58:04;;;;;;;32.07;19.93;;;;;;;12.18;75.23;98351.41;5092698;28;20212;-75
2021/04/02 01:00:31;;;;;;;29.97;19.00;;;;;;;12.12;75.12;98341.25;5092514;28;20214;-76
2021/04/02 01:02:58;;;;;;;28.77;18.13;;;;;;;12.06;75.06;98333.72;5096338;28;20213;-75
2021/04/02 01:05:28;;;;;;;26.87;16.93;;;;;;;11.82;76.21;98343.44;5094590;28;20244;-74
2021/04/02 01:07:58;;;;;;;27.60;16.43;;;;;;;11.66;76.48;98334.84;5096138;28;20210;-75
2021/04/02 01:10:26;;;;;;;28.00;16.40;;;;;;;11.52;77.73;98334.94;5096524;28;20233;-74
2021/04/02 01:12:56;;;;;;;25.60;14.83;;;;;;;11.66;76.25;98332.22;5096232;28;20210;-73
2021/04/02 01:15:28;;;;;;;26.87;16.17;;;;;;;11.51;77.43;98333.25;5096336;28;20225;-70
2021/04/02 01:17:55;;;;;;;25.03;14.90;;;;;;;11.58;77.15;98329.22;5096188;28;20252;-75
2021/04/02 01:20:26;;;;;;;24.40;15.40;;;;;;;11.55;76.85;98345.34;5095974;28;20206;-71
2021/04/02 01:22:53;;;;;;;21.20;14.67;;;;;;;11.47;77.24;98337.94;5096316;28;20220;-72
2021/04/02 01:25:42;;;;;;;20.63;14.30;;;;;;;11.32;77.89;98341.63;5096121;28;20282;-72
2021/04/02 01:28:23;;;;;;;21.23;13.40;;;;;;;11.34;77.80;98349.47;5096025;28;20349;-69
2021/04/02 01:30:51;;;;;;;19.87;13.43;;;;;;;11.24;78.05;98337.81;5094035;28;20250;-75
2021/04/02 01:33:19;;;;;;;21.83;12.87;;;;;;;11.26;78.15;98343.84;5095622;28;21506;-74
2021/04/02 01:35:45;;;;;;;19.27;13.03;;;;;;;11.12;78.51;98344.78;5095582;28;20318;-74
2021/04/02 01:38:17;;;;;;;16.50;11.50;;;;;;;11.12;78.15;98351.91;5095709;28;20203;-75
2021/04/02 01:40:46;;;;;;;17.57;11.37;;;;;;;11.21;77.52;98351.25;5095650;28;20206;-75
2021/04/02 01:43:16;;;;;;;17.70;10.63;;;;;;;11.14;77.81;98353.47;5095274;28;20199;-74
2021/04/02 01:45:45;;;;;;;18.10;10.73;;;;;;;11.15;77.43;98357.81;5095217;28;20203;-74
2021/04/02 01:48:14;;;;;;;16.97;10.03;;;;;;;11.01;78.33;98360.53;5095306;28;20205;-75
2021/04/02 01:50:42;;;;;;;16.77;10.53;;;;;;;10.99;78.15;98345.72;5095396;28;20237;-74
2021/04/02 01:53:10;;;;;;;13.97;9.60;;;;;;;10.96;78.37;98351.22;5095511;28;20241;-74
2021/04/02 01:55:37;;;;;;;14.33;9.63;;;;;;;10.90;78.47;98343.69;5095189;28;20216;-71
2021/04/02 01:58:03;;;;;;;16.90;9.40;;;;;;;10.86;78.62;98355.41;5093774;28;20261;-71
2021/04/02 02:00:34;;;;;;;13.73;9.03;;;;;;;10.66;79.92;98355.91;5095512;28;20210;-68
2021/04/02 02:03:01;;;;;;;13.27;9.00;;;;;;;10.56;80.44;98354.81;5095383;28;20229;-70
2021/04/02 02:05:28;;;;;;;14.97;9.70;;;;;;;10.47;80.90;98364.19;5094934;28;20734;-69
2021/04/02 02:07:58;;;;;;;16.87;9.23;;;;;;;10.45;81.08;98371.38;5094975;28;20218;-69
2021/04/02 02:10:26;;;;;;;15.60;9.00;;;;;;;10.38;81.38;98363.94;5094839;28;20252;-77
2021/04/02 02:12:54;;;;;;;14.13;8.87;;;;;;;10.30;81.64;98366.22;5093931;28;20208;-76
2021/04/02 02:15:20;;;;;;;12.27;8.33;;;;;;;10.14;82.51;98357.56;5094926;28;20556;-76
2021/04/02 02:17:53;;;;;;;11.87;7.67;;;;;;;10.31;81.12;98357.34;5094774;28;21272;-71
2021/04/02 02:20:19;;;;;;;10.97;7.27;;;;;;;10.27;80.88;98361.16;5095089;28;20207;-73
2021/04/02 02:22:47;;;;;;;9.17;6.77;;;;;;;10.34;80.43;98363.28;5092983;28;20207;-69
2021/04/02 02:25:14;;;;;;;12.97;7.43;;;;;;;10.32;80.27;98366.97;5094696;28;20212;-73
2021/04/02 02:27:40;;;;;;;9.23;6.77;;;;;;;10.18;80.67;98362.59;5094723;28;20203;-76
2021/04/02 02:30:10;;;;;;;11.83;7.00;;;;;;;10.14;80.71;98365.50;5094742;28;20303;-71
2021/04/02 02:32:36;;;;;;;11.40;6.53;;;;;;;10.10;80.69;98361.38;5094499;28;20210;-71
2021/04/02 02:35:03;;;;;;;11.47;7.70;;;;;;;10.06;80.78;98362.50;5094767;28;20305;-71
2021/04/02 02:37:29;;;;;;;10.40;6.60;;;;;;;9.91;81.58;98366.94;5094357;28;20208;-70
2021/04/02 02:39:56;;;;;;;13.17;6.50;;;;;;;9.88;82.01;98369.78;5094266;28;20206;-68
2021/04/02 02:42:23;;;;;;;10.83;6.83;;;;;;;9.83;82.82;98370.97;5094365;28;20208;-67
2021/04/02 02:44:49;;;;;;;9.87;6.40;;;;;;;9.89;82.57;98365.31;5094188;28;20211;-68
2021/04/02 02:47:15;;;;;;;10.17;6.90;;;;;;;9.78;82.94;98373.09;5094394;28;20237;-68
2021/04/02 02:49:43;;;;;;;13.37;6.93;;;;;;;9.64;84.02;98365.16;5092528;28;20203;-72
2021/04/02 02:52:09;;;;;;;11.47;6.80;;;;;;;9.69;84.18;98378.91;5094234;28;20213;-72
2021/04/02 02:54:36;;;;;;;12.80;7.33;;;;;;;9.62;84.85;98377.59;5094092;28;20208;-72
2021/04/02 02:57:06;;;;;;;11.87;7.70;;;;;;;9.66;85.10;98384.41;5094514;28;20215;-72
2021/04/02 02:59:34;;;;;;;13.57;8.63;;;;;;;9.55;85.99;98376.28;5093929;28;20208;-72
2021/04/02 03:02:01;;;;;;;14.90;8.37;;;;;;;9.64;85.38;98376.56;5094153;28;20214;-72
2021/04/02 03:04:29;;;;;;;13.03;8.30;;;;;;;9.69;84.49;98385.06;5094173;28;20207;-72
2021/04/02 03:06:57;;;;;;;11.63;7.50;;;;;;;9.61;84.13;98376.75;5094238;28;20221;-72
2021/04/02 03:09:25;;;;;;;10.70;7.13;;;;;;;9.70;82.77;98375.34;5094371;28;20267;-72
2021/04/02 03:11:52;;;;;;;8.87;6.47;;;;;;;9.64;81.47;98381.84;5094072;28;20242;-73
2021/04/02 03:14:21;;;;;;;10.83;6.40;;;;;;;9.52;80.46;98381.75;5092400;28;20383;-73
2021/04/02 03:16:48;;;;;;;7.40;5.63;;;;;;;9.35;80.67;98384.53;5093834;28;20211;-69
2021/04/02 03:19:17;;;;;;;8.30;5.80;;;;;;;9.29;80.85;98384.91;5093526;28;20236;-68
2021/04/02 03:21:45;;;;;;;8.67;6.47;;;;;;;9.22;81.20;98375.69;5093784;28;20218;-69
2021/04/02 03:24:11;;;;;;;9.63;6.03;;;;;;;9.25;80.80;98375.50;5093274;28;20214;-69
2021/04/02 03:26:42;;;;;;;8.83;5.73;;;;;;;9.21;79.54;98373.97;5093388;28;20740;-73
2021/04/02 03:29:09;;;;;;;7.67;5.30;;;;;;;9.24;77.90;98387.00;5093751;28;20214;-69
2021/04/02 03:31:38;;;;;;;8.70;4.83;;;;;;;9.31;77.29;98377.78;5093641;28;20249;-69
2021/04/02 03:34:08;;;;;;;9.17;4.87;;;;;;;9.11;78.27;98383.41;5093683;28;20207;-73
2021/04/02 03:36:36;;;;;;;6.87;4.40;;;;;;;9.07;77.82;98389.78;5093985;28;20950;-73
2021/04/02 03:39:05;;;;;;;6.80;4.60;;;;;;;9.02;77.74;98381.28;5093500;28;20214;-73
2021/04/02 03:41:34;;;;;;;7.53;4.47;;;;;;;8.95;77.29;98380.81;5091528;28;20217;-73
2021/04/02 03:44:00;;;;;;;7.47;4.20;;;;;;;8.98;76.73;98387.69;5093361;28;20207;-72
2021/04/02 03:46:28;;;;;;;6.37;3.90;;;;;;;8.85;76.36;98397.25;5093234;28;20206;-69
2021/04/02 03:48:58;;;;;;;8.77;4.57;;;;;;;8.67;76.94;98385.13;5093137;28;20218;-73
2021/04/02 03:51:25;;;;;;;6.57;3.77;;;;;;;8.61;76.64;98391.59;5093068;28;20237;-74
2021/04/02 03:53:56;;;;;;;4.53;3.40;;;;;;;8.55;74.48;98399.00;5093275;28;20211;-76
2021/04/02 03:56:26;;;;;;;4.30;3.20;;;;;;;8.42;75.28;98390.97;5092957;28;20711;-74
2021/04/02 03:58:54;;;;;;;4.73;3.50;;;;;;;8.28;75.15;98393.53;5093074;28;20298;-73
2021/04/02 04:01:22;;;;;;;7.07;3.37;;;;;;;8.20;74.03;98392.25;5093130;28;20263;-73
2021/04/02 04:03:50;;;;;;;6.73;3.27;;;;;;;8.39;72.38;98391.13;5093485;28;20207;-73
2021/04/02 04:06:20;;;;;;;5.93;3.30;;;;;;;8.30;72.18;98401.31;5091524;28;20219;-74
2021/04/02 04:08:48;;;;;;;3.80;2.60;;;;;;;8.30;71.98;98396.06;5092987;28;20665;-73
2021/04/02 04:11:16;;;;;;;4.40;2.40;;;;;;;8.29;72.02;98403.13;5092726;28;20230;-69
2021/04/02 04:13:46;;;;;;;4.77;2.80;;;;;;;8.21;72.39;98401.84;5093150;28;20230;-76
2021/04/02 04:16:16;;;;;;;6.63;2.80;;;;;;;8.05;73.41;98401.81;5092768;28;20676;-76
2021/04/02 04:18:45;;;;;;;4.60;3.40;;;;;;;8.00;73.22;98402.97;5092846;28;20215;-76
2021/04/02 04:21:12;;;;;;;6.20;2.90;;;;;;;7.93;73.73;98396.34;5092732;28;20252;-76
2021/04/02 04:23:40;;;;;;;5.20;3.40;;;;;;;7.88;74.39;98403.66;5092991;28;20210;-75
2021/04/02 04:26:10;;;;;;;3.67;2.40;;;;;;;7.79;74.39;98404.16;5093114;28;20217;-76
2021/04/02 04:28:37;;;;;;;5.17;3.20;;;;;;;7.76;75.29;98405.16;5092846;28;20207;-70
2021/04/02 04:31:07;;;;;;;4.30;2.90;;;;;;;7.92;74.21;98399.91;5092972;28;20234;-70
2021/04/02 04:33:34;;;;;;;4.77;2.90;;;;;;;7.81;74.64;98407.53;5091000;28;20681;-70
2021/04/02 04:36:01;;;;;;;4.43;3.13;;;;;;;7.63;75.67;98414.66;5093824;28;20206;-71
2021/04/02 04:38:29;;;;;;;4.50;2.70;;;;;;;7.57;75.78;98419.38;5097234;28;20225;-71
2021/04/02 04:40:57;;;;;;;4.77;2.97;;;;;;;7.51;75.99;98409.16;5096952;28;20216;-71
2021/04/02 04:43:26;;;;;;;6.23;3.47;;;;;;;7.45;75.76;98417.38;5096814;28;20198;-72
2021/04/02 04:45:53;;;;;;;5.50;3.10;;;;;;;7.43;76.10;98414.84;5096897;28;20208;-73
2021/04/02 04:48:19;;;;;;;5.30;2.50;;;;;;;7.56;75.02;98412.41;5096449;28;20735;-70
2021/04/02 04:50:45;;;;;;;5.70;2.60;;;;;;;7.43;74.63;98408.72;5096377;28;20288;-71
2021/04/02 04:53:16;;;;;;;6.77;2.73;;;;;;;7.41;74.49;98414.06;5096627;28;20213;-72
2021/04/02 04:55:43;;;;;;;4.27;2.60;;;;;;;7.38;74.16;98413.38;5096659;28;20276;-71
2021/04/02 04:58:13;;;;;;;5.40;2.77;;;;;;;7.24;75.12;98413.25;5095884;28;20232;-67
2021/04/02 05:00:42;;;;;;;4.23;2.60;;;;;;;7.20;75.32;98416.94;5096015;28;20250;-67
2021/04/02 05:03:11;;;;;;;4.03;2.50;;;;;;;7.09;75.07;98419.28;5096503;28;20207;-67
2021/04/02 05:05:41;;;;;;;5.37;2.90;;;;;;;7.06;74.65;98413.31;5096095;28;20265;-69
2021/04/02 05:08:09;;;;;;;4.73;2.40;;;;;;;7.19;74.21;98417.88;5096322;28;20226;-68
2021/04/02 05:10:38;;;;;;;4.40;2.70;;;;;;;7.04;75.12;98417.81;5096268;28;20230;-76
2021/04/02 05:13:06;;;;;;;4.43;2.63;;;;;;;6.88;75.66;98423.00;5095834;28;20760;-78
2021/04/02 05:15:35;;;;;;;4.47;2.93;;;;;;;6.93;75.86;98422.75;5096214;28;20206;-78
2021/04/02 05:18:03;;;;;;;4.23;2.40;;;;;;;6.99;74.95;98425.94;5096186;28;20210;-77
2021/04/02 05:20:34;;;;;;;5.70;2.90;;;;;;;6.93;75.78;98425.38;5095912;28;20214;-77
2021/04/02 05:23:00;;;;;;;5.97;3.30;;;;;;;6.88;75.57;98424.75;5096083;28;20210;-78
2021/04/02 05:25:26;;;;;;;4.63;2.67;;;;;;;6.85;76.52;98420.50;5094536;28;20221;-76
2021/04/02 05:27:52;;;;;;;5.97;3.03;;;;;;;6.90;76.26;98436.88;5095855;28;20255;-76
2021/04/02 05:30:19;;;;;;;4.70;3.13;;;;;;;6.99;76.00;98433.81;5095620;28;20230;-77
2021/04/02 05:32:45;;;;;;;6.37;3.10;;;;;;;7.01;76.84;98439.84;5095953;28;20258;-77
2021/04/02 05:35:12;;;;;;;4.00;2.80;;;;;;;7.22;75.86;98444.03;5095543;28;20713;-77
2021/04/02 05:37:38;;;;;;;4.27;3.10;;;;;;;7.42;74.54;98441.22;5096173;28;20267;-77
2021/04/02 05:40:05;;;;;;;4.77;2.90;;;;;;;7.67;73.55;98437.25;5095577;28;20241;-77
2021/04/02 05:42:34;;;;;;;5.63;3.20;;;;;;;7.98;71.78;98433.81;5095716;28;20238;-77
2021/04/02 05:45:01;;;;;;;4.97;3.27;;;;;;;8.14;71.13;98437.31;5095875;28;20217;-77
2021/04/02 05:47:27;;;;;;;4.10;2.87;;;;;;;8.24;71.22;98426.22;5095774;28;20211;-77
2021/04/02 05:49:56;;;;;;;4.90;3.53;;;;;;;8.20;71.27;98432.56;5095365;28;20209;-77
2021/04/02 05:52:24;;;;;;;3.80;3.23;;;;;;;7.97;71.75;98434.75;5093555;28;20206;-76
2021/04/02 05:54:52;;;;;;;4.27;3.23;;;;;;;7.80;72.81;98435.66;5095230;28;20217;-77
2021/04/02 05:57:19;;;;;;;4.63;3.50;;;;;;;7.66;73.62;98442.56;5095242;28;20220;-76
2021/04/02 05:59:46;;;;;;;6.27;4.07;;;;;;;7.56;74.19;98430.81;5095395;28;20214;-77
2021/04/02 06:02:13;;;;;;;5.07;3.57;;;;;;;7.45;74.85;98428.75;5095294;28;20206;-72
2021/04/02 06:04:39;;;;;;;5.13;3.93;;;;;;;7.46;74.96;98432.22;5094899;28;20212;-72
2021/04/02 06:07:06;;;;;;;6.50;4.37;;;;;;;7.54;74.96;98445.84;5094826;28;20222;-72
2021/04/02 06:09:32;;;;;;;4.90;3.67;;;;;;;7.55;74.67;98437.88;5095308;28;20217;-72
2021/04/02 06:11:58;;;;;;;4.80;3.40;;;;;;;7.51;74.82;98431.06;5095088;28;20323;-72
2021/04/02 06:14:25;;;;;;;4.73;3.97;;;;;;;7.55;74.65;98431.75;5095258;28;20240;-72
2021/04/02 06:16:52;;;;;;;6.70;4.03;;;;;;;7.41;74.81;98435.09;5093365;28;20213;-72
2021/04/02 06:19:19;;;;;;;6.20;3.80;;;;;;;7.46;74.80;98437.47;5094788;28;20210;-72
2021/04/02 06:21:47;;;;;;;5.87;3.97;;;;;;;7.48;75.63;98435.66;5095130;28;20298;-72
2021/04/02 06:24:16;;;;;;;5.60;4.30;;;;;;;7.51;75.75;98440.72;5094800;28;20207;-72
2021/04/02 06:26:57;;;;;;;6.07;3.87;;;;;;;7.66;74.43;98435.50;5094819;28;20590;-72
2021/04/02 06:29:26;;;;;;;5.43;4.27;;;;;;;7.73;73.83;98433.41;5094754;28;20209;-72
2021/04/02 06:31:52;;;;;;;5.53;4.00;;;;;;;7.65;74.61;98438.25;5094738;28;20242;-72
2021/04/02 06:34:20;;;;;;;6.03;4.50;;;;;;;7.73;74.37;98446.56;5094862;28;20264;-71
2021/04/02 06:36:49;;;;;;;6.47;3.93;;;;;;;7.87;74.09;98447.53;5094579;28;20233;-71
2021/04/02 06:39:17;;;;;;;6.03;4.03;;;;;;;8.00;73.57;98443.31;5094751;28;20207;-71
2021/04/02 06:41:43;;;;;;;6.87;4.80;;;;;;;8.11;73.00;98448.00;5094516;28;20229;-72
2021/04/02 06:44:09;;;;;;;8.33;4.97;;;;;;;8.21;73.28;98450.06;5092854;28;20202;-71
2021/04/02 06:46:37;;;;;;;5.10;3.97;;;;;;;8.18;73.25;98457.25;5094165;28;20694;-72
2021/04/02 06:49:10;;;;;;;5.20;3.47;;;;;;;8.13;72.64;98461.91;5094491;28;20214;-72
2021/04/02 06:51:37;;;;;;;7.00;4.87;;;;;;;8.33;72.03;98453.84;5093879;28;20234;-72
2021/04/02 06:54:05;;;;;;;14.33;4.83;;;;;;;8.41;72.10;98462.16;5094378;28;20568;-72
2021/04/02 06:56:33;;;;;;;5.40;4.30;;;;;;;8.43;71.14;98478.72;5093978;28;20211;-72
2021/04/02 06:59:00;;;;;;;8.43;4.87;;;;;;;8.47;71.34;98465.31;5093398;28;20672;-72
2021/04/02 07:01:28;;;;;;;7.33;5.50;;;;;;;8.46;71.74;98470.66;5094111;28;20210;-72
2021/04/02 07:03:55;;;;;;;6.27;5.00;;;;;;;8.55;72.33;98468.34;5094032;28;20628;-72
2021/04/02 07:06:21;;;;;;;8.83;5.07;;;;;;;8.66;70.58;98476.50;5094152;28;20562;-72
2021/04/02 07:08:48;;;;;;;6.43;4.70;;;;;;;8.75;71.29;98475.16;5091978;28;20210;-72
2021/04/02 07:11:16;;;;;;;6.13;4.50;;;;;;;8.85;69.85;98476.31;5093994;28;20234;-72
2021/04/02 07:13:48;;;;;;;7.93;5.43;;;;;;;8.85;71.08;98474.53;5093585;28;20734;-72
2021/04/02 07:16:17;;;;;;;6.90;5.03;;;;;;;8.84;71.78;98479.88;5093703;28;20210;-71
2021/04/02 07:18:43;;;;;;;7.50;5.30;;;;;;;8.98;71.18;98479.94;5093806;28;20224;-71
2021/04/02 07:21:10;;;;;;;8.60;5.57;;;;;;;9.01;70.34;98470.06;5093584;28;20211;-71
2021/04/02 07:23:38;;;;;;;7.77;5.60;;;;;;;8.96;70.19;98474.78;5093759;28;20206;-71
2021/04/02 07:26:04;;;;;;;7.70;5.53;;;;;;;8.86;70.65;98470.09;5093709;28;20199;-71
2021/04/02 07:28:31;;;;;;;7.60;5.60;;;;;;;8.79;70.78;98479.28;5093672;28;20211;-72
2021/04/02 07:30:58;;;;;;;6.53;5.20;;;;;;;8.86;70.74;98486.78;5093055;28;20234;-72
2021/04/02 07:33:26;;;;;;;7.80;5.27;;;;;;;9.03;70.61;98475.25;5093747;28;20212;-71
2021/04/02 07:35:56;;;;;;;8.53;6.40;;;;;;;9.22;69.74;98482.03;5092021;28;20207;-71
2021/04/02 07:38:27;;;;;;;11.37;6.67;;;;;;;9.22;70.73;98478.53;5093582;28;20619;-72
2021/04/02 07:40:53;;;;;;;7.93;6.10;;;;;;;9.34;68.78;98483.94;5093659;28;20214;-72
2021/04/02 07:43:20;;;;;;;8.03;6.13;;;;;;;9.29;70.51;98479.88;5093376;28;20209;-71
2021/04/02 07:45:52;;;;;;;10.73;6.43;;;;;;;9.26;69.65;98477.41;5093217;28;20739;-71
2021/04/02 07:48:24;;;;;;;8.17;6.53;;;;;;;9.33;69.83;98476.13;5093411;28;20211;-71
2021/04/02 07:50:52;;;;;;;7.13;5.70;;;;;;;9.33;70.11;98481.38;5093029;28;20765;-71
2021/04/02 07:53:20;;;;;;;8.57;6.23;;;;;;;9.35;69.35;98490.06;5093165;28;20210;-71
2021/04/02 07:55:55;;;;;;;8.00;6.80;;;;;;;9.44;68.13;98485.13;5091049;28;20264;-71
2021/04/02 07:58:26;;;;;;;9.70;6.40;;;;;;;9.36;67.74;98489.16;5091318;28;20213;-71
2021/04/02 08:00:54;;;;;;;9.83;6.63;;;;;;;9.26;68.44;98485.34;5091989;28;20237;-70
2021/04/02 08:03:24;;;;;;;10.87;7.30;;;;;;;9.38;69.82;98489.88;5090644;28;20298;-71
2021/04/02 08:06:00;;;;;;;9.07;6.77;;;;;;;9.55;68.02;98481.84;5090160;28;20207;-72
2021/04/02 08:08:37;;;;;;;8.87;6.50;;;;;;;9.62;69.15;98488.44;5088513;28;20210;-70
2021/04/02 08:11:09;;;;;;;9.83;6.87;;;;;;;9.58;68.00;98492.19;5093333;28;20282;-70
2021/04/02 08:13:47;;;;;;;9.10;6.67;;;;;;;9.64;67.66;98492.69;5095401;28;20245;-71
2021/04/02 08:16:47;;;;;;;10.03;6.47;;;;;;;9.68;67.67;98485.44;5096154;28;20210;-71
2021/04/02 08:19:16;;;;;;;8.47;6.43;;;;;;;9.77;67.39;98483.09;5096407;28;20674;-70
2021/04/02 08:21:46;;;;;;;8.50;6.70;;;;;;;9.80;67.90;98489.97;5095916;28;20676;-71
2021/04/02 08:24:14;;;;;;;11.90;6.67;;;;;;;9.95;67.08;98481.13;5096326;28;20231;-71
2021/04/02 08:26:43;;;;;;;8.77;6.83;;;;;;;9.92;66.68;98492.69;5095475;28;20207;-69
2021/04/02 08:29:11;;;;;;;11.10;8.30;;;;;;;10.06;68.35;98483.97;5094519;28;20234;-70
2021/04/02 08:31:41;;;;;;;10.83;7.57;;;;;;;10.18;66.78;98483.22;5096041;28;20274;-70
2021/04/02 08:34:07;;;;;;;8.90;7.13;;;;;;;10.22;66.61;98490.03;5097481;28;20211;-70
2021/04/02 08:36:34;;;;;;;10.43;6.47;;;;;;;10.25;65.54;98489.81;5098117;28;20213;-70
2021/04/02 08:39:00;;;;;;;8.13;6.77;;;;;;;10.21;66.26;98483.06;5098053;28;20215;-70
2021/04/02 08:41:29;;;;;;;9.73;6.70;;;;;;;10.13;65.85;98487.94;5098317;28;20207;-70
2021/04/02 08:43:56;;;;;;;8.77;6.73;;;;;;;10.30;67.43;98482.47;5095930;28;20226;-70
2021/04/02 08:46:39;;;;;;;9.07;6.87;;;;;;;10.35;66.67;98485.66;5095543;28;20206;-70
2021/04/02 08:49:07;;;;;;;8.53;6.10;;;;;;;10.22;65.63;98480.28;5095078;28;20210;-70
2021/04/02 08:51:34;;;;;;;8.67;6.83;;;;;;;10.33;65.68;98487.56;5095737;28;20230;-70
2021/04/02 08:54:00;;;;;;;10.20;7.53;;;;;;;10.61;66.55;98483.09;5108043;28;20213;-69
2021/04/02 08:56:29;;;;;;;9.30;7.17;;;;;;;10.68;67.61;98478.25;5113227;28;20209;-70
2021/04/02 08:58:55;;;;;;;10.70;7.73;;;;;;;10.89;66.88;98492.72;5114907;28;20240;-71
2021/04/02 09:01:21;;;;;;;8.60;7.23;;;;;;;10.94;65.49;98488.84;5115770;28;20240;-70
2021/04/02 09:03:48;;;;;;;8.93;7.30;;;;;;;10.87;65.47;98489.31;5114710;27;20210;-71
2021/04/02 09:06:15;;;;;;;10.03;7.50;;;;;;;10.82;65.18;98476.41;5109667;28;20203;-69
2021/04/02 09:08:42;;;;;;;8.63;6.83;;;;;;;10.99;63.62;98475.31;5094078;28;20553;-70
2021/04/02 09:11:10;;;;;;;9.87;7.17;;;;;;;10.91;63.45;98480.25;5094263;28;20298;-70
2021/04/02 09:13:37;;;;;;;8.97;7.03;;;;;;;10.93;66.00;98473.91;5095267;28;20235;-69
2021/04/02 09:16:08;;;;;;;9.53;6.70;;;;;;;11.18;66.51;98473.19;5094879;28;20217;-70
2021/04/02 09:18:34;;;;;;;9.47;7.20;;;;;;;11.38;63.84;98485.91;5093996;28;20220;-70
2021/04/02 09:21:00;;;;;;;9.03;7.23;;;;;;;11.27;63.46;98472.56;5095052;28;20222;-71
2021/04/02 09:23:27;;;;;;;10.30;7.40;;;;;;;11.27;63.99;98475.19;5093009;28;20213;-71
2021/04/02 09:25:54;;;;;;;10.33;7.60;;;;;;;11.43;66.58;98466.13;5093922;28;20649;-71
2021/04/02 09:28:23;;;;;;;11.60;7.80;;;;;;;11.62;65.73;98471.06;5094251;28;20702;-72
2021/04/02 09:30:50;;;;;;;9.40;6.77;;;;;;;11.84;61.12;98468.63;5094912;28;20259;-71
2021/04/02 09:33:18;;;;;;;6.97;6.27;;;;;;;11.97;60.62;98456.22;5094657;28;20268;-72
2021/04/02 09:35:44;;;;;;;9.00;6.80;;;;;;;11.97;60.28;98474.78;5094214;28;20206;-71
2021/04/02 09:38:10;;;;;;;9.50;7.07;;;;;;;11.91;60.32;98481.34;5094602;28;20208;-72
2021/04/02 09:40:36;;;;;;;9.07;7.13;;;;;;;11.85;60.95;98470.31;5094847;28;20621;-71
2021/04/02 09:43:04;;;;;;;10.17;7.70;;;;;;;12.00;59.15;98469.28;5093717;28;20236;-71
2021/04/02 09:45:30;;;;;;;9.67;7.97;;;;;;;11.86;59.99;98472.03;5094501;28;20215;-72
2021/04/02 09:47:58;;;;;;;10.07;7.10;;;;;;;11.74;61.97;98473.72;5094566;28;20217;-71
2021/04/02 09:50:25;;;;;;;8.73;7.13;;;;;;;11.80;63.54;98475.09;5092164;28;20296;-70
2021/04/02 09:52:52;;;;;;;10.37;7.63;;;;;;;12.20;64.05;98468.72;5094324;28;20270;-70
2021/04/02 09:55:18;;;;;;;9.60;7.27;;;;;;;12.67;58.55;98466.19;5094079;28;20267;-70
2021/04/02 09:57:44;;;;;;;10.73;7.60;;;;;;;12.67;58.39;98467.06;5092798;28;20213;-71
2021/04/02 10:00:14;;;;;;;8.90;6.90;;;;;;;12.54;56.05;98468.88;5094151;28;20207;-70
2021/04/02 10:02:41;;;;;;;10.23;7.47;;;;;;;12.27;55.93;98475.28;5094509;28;20553;-71
2021/04/02 10:05:08;;;;;;;8.33;7.00;;;;;;;12.11;56.95;98467.56;5093595;28;20214;-70
2021/04/02 10:07:35;;;;;;;10.53;7.60;;;;;;;12.19;57.34;98469.69;5093013;28;20666;-70
2021/04/02 10:10:01;;;;;;;8.90;7.77;;;;;;;12.39;56.71;98466.47;5093331;28;20209;-70
2021/04/02 10:12:27;;;;;;;9.37;7.60;;;;;;;12.70;57.10;98466.81;5093067;28;20243;-69
2021/04/02 10:14:53;;;;;;;8.53;7.27;;;;;;;12.95;56.02;98463.22;5093868;28;20324;-70
2021/04/02 10:17:25;;;;;;;12.10;7.93;;;;;;;13.10;55.80;98462.13;5092264;28;20214;-70
2021/04/02 10:19:51;;;;;;;9.83;7.93;;;;;;;13.23;55.64;98465.56;5094650;28;20697;-70
2021/04/02 10:22:17;;;;;;;9.67;8.13;;;;;;;13.06;55.50;98471.25;5094739;28;20212;-70
2021/04/02 10:24:43;;;;;;;8.30;7.27;;;;;;;12.85;55.55;98464.84;5094921;28;20725;-71
2021/04/02 10:27:09;;;;;;;9.23;7.23;;;;;;;12.53;53.30;98466.34;5094847;28;20574;-70
2021/04/02 10:29:35;;;;;;;9.30;7.10;;;;;;;12.21;54.13;98462.47;5094707;28;20217;-70
2021/04/02 10:32:02;;;;;;;9.10;7.30;;;;;;;12.19;54.48;98459.09;5094258;28;20284;-71
2021/04/02 10:34:29;;;;;;;9.13;6.80;;;;;;;12.51;55.13;98462.94;5093853;28;20635;-71
2021/04/02 10:36:55;;;;;;;10.60;7.67;;;;;;;12.79;52.81;98455.56;5094772;28;20216;-72
2021/04/02 10:39:21;;;;;;;8.63;7.07;;;;;;;12.58;52.84;98466.84;5094279;28;20693;-71
2021/04/02 10:41:47;;;;;;;12.03;7.97;;;;;;;12.40;53.42;98462.88;5094598;28;20212;-72
2021/04/02 10:44:13;;;;;;;10.47;7.33;;;;;;;12.18;53.26;98455.56;5092524;28;20221;-72
2021/04/02 10:46:40;;;;;;;7.73;6.30;;;;;;;12.14;52.46;98455.91;5094565;28;20574;-71
2021/04/02 10:49:06;;;;;;;8.73;7.60;;;;;;;12.28;54.69;98455.81;5094431;28;20226;-70
2021/04/02 10:51:33;;;;;;;9.27;7.00;;;;;;;12.45;54.22;98460.72;5093903;28;20227;-70
2021/04/02 10:54:01;;;;;;;8.73;6.80;;;;;;;12.38;52.25;98451.53;5094367;28;20207;-70
2021/04/02 10:56:29;;;;;;;7.73;6.07;;;;;;;12.42;52.37;98455.66;5094388;28;20618;-71
2021/04/02 10:58:55;;;;;;;7.97;5.97;;;;;;;12.45;51.13;98458.06;5090945;28;20214;-71
2021/04/02 11:01:21;;;;;;;7.83;6.70;;;;;;;12.38;51.52;98448.88;5092792;28;20249;-69
2021/04/02 11:03:47;;;;;;;7.70;6.43;;;;;;;12.38;53.85;98443.56;5092668;28;20210;-69
2021/04/02 11:06:13;;;;;;;7.43;6.40;;;;;;;12.59;55.61;98452.66;5091383;28;20551;-69
2021/04/02 11:08:40;;;;;;;9.57;6.20;;;;;;;12.70;53.85;98444.75;5090853;28;20213;-68
2021/04/02 11:11:06;;;;;;;7.80;6.87;;;;;;;12.69;52.96;98443.03;5089863;28;20245;-69
2021/04/02 11:13:32;;;;;;;6.27;5.50;;;;;;;12.86;51.58;98450.63;5110754;28;20241;-69
2021/04/02 11:15:58;;;;;;;6.63;5.90;;;;;;;12.85;53.00;98448.94;5112645;28;20233;-73
2021/04/02 11:18:24;;;;;;;6.60;5.90;;;;;;;12.69;51.41;98443.03;5112328;28;20217;-71
2021/04/02 11:20:50;;;;;;;6.77;5.63;;;;;;;12.49;52.33;98443.66;5111681;28;20244;-71
2021/04/02 11:23:18;;;;;;;8.00;6.00;;;;;;;12.48;51.86;98449.91;5112295;28;20209;-71
2021/04/02 11:25:45;;;;;;;6.07;5.47;;;;;;;12.38;51.65;98435.63;5113070;28;20217;-72
2021/04/02 11:28:11;;;;;;;6.60;5.57;;;;;;;12.53;52.52;98442.47;5111771;28;20218;-72
2021/04/02 11:30:37;;;;;;;5.63;4.63;;;;;;;12.51;50.94;98436.41;5112369;28;20605;-72
2021/04/02 11:33:03;;;;;;;6.20;5.60;;;;;;;12.75;50.09;98432.00;5112044;28;20683;-71
2021/04/02 11:35:30;;;;;;;6.27;5.60;;;;;;;12.75;50.22;98427.53;5111652;28;20697;-70
2021/04/02 11:37:56;;;;;;;6.80;5.30;;;;;;;12.83;52.01;98434.94;5111527;28;20206;-71